Time;durP1;ratioP1;P1;durP2;ratioP2;P2;SDS_P1;SDS_P2;PMS_P1;PMS_P2;Temp;Humidity;BMP_temperature;BMP_pressure;BME280_temperature;BME280_humidity;BME280_pressure;Samples;Min_cycle;Max_cycle;Signal;HPM_P1;HPM_P2
2023/03/09 04:02:01;;;;;;;0.60;0.50;;;12.90;45.40;;;;;;5191724;23;45746;-57
2023/03/09 04:04:27;;;;;;;0.45;0.40;;;12.80;45.40;;;;;;4945389;28;45245;-61
2023/03/09 04:06:53;;;;;;;0.53;0.47;;;12.90;46.00;;;;;;4920454;28;44734;-59
2023/03/09 04:09:18;;;;;;;0.50;0.50;;;12.90;45.40;;;;;;4918831;28;45003;-58
2023/03/09 04:11:45;;;;;;;0.50;0.50;;;12.90;45.40;;;;;;4924414;28;44908;-58
2023/03/09 04:14:10;;;;;;;0.47;0.47;;;12.90;45.40;;;;;;4921889;28;45564;-57
2023/03/09 04:16:38;;;;;;;0.40;0.40;;;12.90;45.40;;;;;;4927173;28;45448;-57
2023/03/09 04:19:04;;;;;;;0.60;0.60;;;12.90;45.40;;;;;;4927101;28;45861;-57
2023/03/09 04:21:29;;;;;;;0.43;0.43;;;12.90;45.40;;;;;;4926425;28;45157;-58
2023/03/09 04:23:55;;;;;;;0.50;0.50;;;12.90;45.40;;;;;;4926698;28;45623;-57
2023/03/09 04:26:20;;;;;;;0.70;0.60;;;12.90;45.40;;;;;;4928825;28;44882;-56
2023/03/09 04:28:46;;;;;;;0.50;0.43;;;12.90;45.40;;;;;;4924386;28;45032;-57
2023/03/09 04:31:11;;;;;;;0.70;0.50;;;12.90;45.40;;;;;;4926854;28;46193;-57
2023/03/09 04:33:37;;;;;;;0.60;0.60;;;12.90;45.50;;;;;;4926103;28;45669;-56
2023/03/09 04:36:03;;;;;;;0.63;0.50;;;12.90;45.40;;;;;;4925027;28;44890;-57
2023/03/09 04:38:28;;;;;;;0.70;0.50;;;12.90;45.40;;;;;;4924708;28;45537;-56
2023/03/09 04:40:54;;;;;;;0.50;0.50;;;12.90;45.40;;;;;;4910207;28;45771;-57
2023/03/09 04:43:19;;;;;;;0.50;0.50;;;12.90;45.40;;;;;;4922332;28;45395;-58
2023/03/09 04:45:45;;;;;;;0.50;0.50;;;12.90;45.40;;;;;;4930410;28;45852;-59
2023/03/09 04:48:11;;;;;;;0.53;0.53;;;12.90;45.40;;;;;;4921461;28;45397;-53
2023/03/09 04:50:36;;;;;;;0.60;0.57;;;12.90;45.40;;;;;;4928552;28;44764;-57
2023/03/09 04:53:02;;;;;;;0.70;0.47;;;12.90;45.50;;;;;;4920536;28;47383;-54
2023/03/09 04:55:27;;;;;;;0.43;0.43;;;12.90;45.50;;;;;;4924872;28;45414;-57
2023/03/09 04:57:53;;;;;;;0.30;0.30;;;12.90;45.50;;;;;;4923294;28;44697;-57
2023/03/09 05:00:19;;;;;;;0.70;0.40;;;13.00;45.50;;;;;;4893215;28;45995;-57
2023/03/09 05:02:44;;;;;;;0.50;0.50;;;12.90;45.50;;;;;;4923546;28;46972;-55
2023/03/09 05:05:10;;;;;;;0.50;0.50;;;12.90;45.50;;;;;;4928851;28;45479;-57
2023/03/09 05:07:36;;;;;;;0.40;0.40;;;13.00;45.50;;;;;;4925756;28;45033;-56
2023/03/09 05:10:01;;;;;;;0.40;0.40;;;12.90;45.50;;;;;;4923143;28;46104;-56
2023/03/09 05:12:31;;;;;;;0.57;0.50;;;13.00;45.50;;;;;;4920985;28;47652;-60
2023/03/09 05:14:57;;;;;;;0.40;0.40;;;12.90;45.50;;;;;;4928759;28;45663;-56
2023/03/09 05:17:23;;;;;;;0.38;0.38;;;13.00;45.50;;;;;;4905954;28;45626;-55
2023/03/09 05:19:49;;;;;;;0.37;0.37;;;13.00;45.50;;;;;;4926486;28;45033;-60
2023/03/09 05:22:14;;;;;;;0.53;0.40;;;13.00;45.50;;;;;;4923252;28;45504;-58
2023/03/09 05:24:40;;;;;;;0.35;0.35;;;13.00;45.60;;;;;;4926343;28;45409;-56
2023/03/09 05:27:05;;;;;;;0.40;0.40;;;13.00;45.60;;;;;;4924894;28;45374;-58
2023/03/09 05:29:31;;;;;;;0.60;0.60;;;13.00;45.60;;;;;;4926740;28;45600;-56
2023/03/09 05:31:56;;;;;;;0.40;0.40;;;13.00;45.60;;;;;;4926629;28;45367;-60
2023/03/09 05:34:22;;;;;;;1.00;0.60;;;13.00;45.60;;;;;;4918385;28;45661;-59
2023/03/09 05:36:47;;;;;;;0.50;0.50;;;13.00;45.60;;;;;;4927419;28;45575;-57
2023/03/09 05:39:13;;;;;;;1.00;0.50;;;13.00;45.60;;;;;;4922516;28;45225;-57
2023/03/09 05:41:39;;;;;;;0.60;0.50;;;13.00;45.60;;;;;;4918349;28;47294;-58
2023/03/09 05:44:05;;;;;;;0.50;0.40;;;13.00;45.60;;;;;;4923423;28;45540;-56
2023/03/09 05:46:30;;;;;;;0.40;0.40;;;13.00;45.60;;;;;;4924971;28;45216;-59
2023/03/09 05:48:56;;;;;;;0.45;0.45;;;13.00;45.60;;;;;;4926868;28;44931;-57
2023/03/09 05:51:21;;;;;;;0.40;0.40;;;13.00;45.60;;;;;;4921206;28;46161;-57
2023/03/09 05:53:47;;;;;;;0.90;0.40;;;13.00;45.60;;;;;;4924295;28;45330;-57
2023/03/09 05:56:12;;;;;;;0.40;0.40;;;13.00;45.60;;;;;;4925157;28;45624;-55
2023/03/09 05:58:38;;;;;;;0.50;0.50;;;13.00;45.60;;;;;;4926915;28;44788;-57
2023/03/09 06:01:04;;;;;;;0.40;0.40;;;13.00;45.60;;;;;;4923102;28;45356;-58
2023/03/09 06:03:29;;;;;;;0.40;0.40;;;13.00;45.60;;;;;;4929274;28;45554;-56
2023/03/09 06:06:03;;;;;;;0.45;0.40;;;13.00;45.60;;;;;;4920364;28;44963;-57
2023/03/09 06:08:28;;;;;;;0.40;0.40;;;13.00;45.60;;;;;;4906941;28;45259;-58
2023/03/09 06:10:56;;;;;;;0.60;0.50;;;13.00;45.60;;;;;;4907523;28;47319;-56
2023/03/09 06:13:22;;;;;;;0.65;0.50;;;13.00;45.70;;;;;;4927788;28;45450;-59
2023/03/09 06:15:47;;;;;;;0.40;0.40;;;13.00;45.70;;;;;;4926762;28;45320;-57
2023/03/09 06:18:13;;;;;;;0.43;0.40;;;13.00;45.70;;;;;;4926686;28;45608;-58
2023/03/09 06:20:38;;;;;;;0.40;0.30;;;13.00;45.70;;;;;;4927356;28;45532;-57
2023/03/09 06:23:04;;;;;;;0.40;0.40;;;13.00;45.70;;;;;;4922576;28;45083;-61
2023/03/09 06:25:30;;;;;;;0.50;0.50;;;13.00;45.70;;;;;;4923592;28;45233;-60
2023/03/09 06:27:55;;;;;;;0.40;0.40;;;13.00;45.70;;;;;;4927474;28;44968;-57
2023/03/09 06:30:21;;;;;;;0.40;0.40;;;13.00;45.70;;;;;;4922230;28;45609;-58
2023/03/09 06:32:47;;;;;;;0.30;0.30;;;13.00;45.80;;;;;;4920620;28;45015;-57
2023/03/09 06:35:13;;;;;;;0.40;0.40;;;13.00;45.70;;;;;;4914222;28;45486;-59
2023/03/09 06:37:38;;;;;;;0.45;0.40;;;13.00;45.70;;;;;;4924064;28;45184;-57
2023/03/09 06:40:04;;;;;;;0.30;0.30;;;13.00;45.70;;;;;;4924131;28;45327;-60
2023/03/09 06:42:30;;;;;;;0.47;0.40;;;13.00;45.70;;;;;;4926807;28;44962;-58
2023/03/09 06:44:55;;;;;;;0.30;0.30;;;13.00;45.80;;;;;;4927389;28;45152;-58
2023/03/09 06:47:21;;;;;;;0.50;0.50;;;13.00;45.80;;;;;;4923023;28;45411;-57
2023/03/09 06:49:46;;;;;;;0.40;0.40;;;13.00;45.70;;;;;;4927749;28;45394;-58
2023/03/09 06:52:12;;;;;;;0.60;0.40;;;13.10;45.80;;;;;;4924401;28;45474;-58
2023/03/09 06:54:38;;;;;;;0.30;0.30;;;13.10;45.90;;;;;;4929761;28;45539;-56
2023/03/09 06:57:04;;;;;;;0.40;0.40;;;13.00;45.80;;;;;;4926183;28;46016;-60
2023/03/09 06:59:29;;;;;;;0.40;0.40;;;13.10;45.80;;;;;;4928233;28;45896;-60
2023/03/09 07:01:55;;;;;;;0.40;0.40;;;13.00;45.80;;;;;;4928473;28;45831;-58
2023/03/09 07:04:21;;;;;;;0.40;0.40;;;13.10;45.80;;;;;;4924191;28;45366;-58
2023/03/09 07:06:46;;;;;;;0.40;0.40;;;13.10;45.90;;;;;;4926788;28;45470;-57
2023/03/09 07:09:12;;;;;;;0.70;0.40;;;13.10;45.90;;;;;;4927278;28;46606;-54
2023/03/09 07:11:37;;;;;;;0.40;0.40;;;13.00;45.80;;;;;;4924195;28;45447;-58
2023/03/09 07:14:03;;;;;;;0.30;0.30;;;13.10;45.90;;;;;;4930086;28;45545;-56
2023/03/09 07:16:30;;;;;;;0.40;0.40;;;13.00;45.80;;;;;;4927365;28;45457;-59
2023/03/09 07:18:56;;;;;;;0.40;0.30;;;13.10;45.90;;;;;;4927868;28;46514;-57
2023/03/09 07:21:21;;;;;;;0.50;0.50;;;13.00;45.80;;;;;;4912040;28;45637;-58
2023/03/09 07:23:47;;;;;;;0.60;0.50;;;13.10;45.90;;;;;;4927926;28;45631;-57
2023/03/09 07:26:12;;;;;;;0.40;0.40;;;13.00;45.80;;;;;;4924618;28;45562;-60
2023/03/09 07:28:38;;;;;;;0.60;0.40;;;13.00;45.90;;;;;;4930124;28;45368;-57
2023/03/09 07:31:08;;;;;;;0.40;0.40;;;13.00;45.80;;;;;;4928905;28;45320;-58
2023/03/09 07:33:34;;;;;;;0.30;0.30;;;13.00;45.90;;;;;;4924870;28;45438;-58
2023/03/09 07:36:02;;;;;;;0.40;0.40;;;13.10;46.00;;;;;;4927780;28;45084;-58
2023/03/09 07:38:28;;;;;;;0.43;0.40;;;13.10;46.00;;;;;;4928265;28;45057;-60
2023/03/09 07:40:56;;;;;;;0.40;0.40;;;13.10;46.00;;;;;;4923445;28;44973;-56
2023/03/09 07:43:21;;;;;;;0.55;0.40;;;13.10;46.00;;;;;;4925786;28;45336;-55
2023/03/09 07:45:47;;;;;;;0.30;0.30;;;13.10;46.00;;;;;;4928450;28;45057;-57
2023/03/09 07:48:13;;;;;;;0.40;0.40;;;13.10;46.00;;;;;;4929707;28;45984;-57
2023/03/09 07:50:39;;;;;;;0.50;0.40;;;13.10;46.00;;;;;;4930063;28;44859;-57
2023/03/09 07:53:04;;;;;;;0.40;0.40;;;13.10;46.00;;;;;;4921683;28;45007;-56
2023/03/09 07:55:34;;;;;;;0.70;0.40;;;13.10;46.00;;;;;;4925916;28;45377;-59
2023/03/09 07:58:00;;;;;;;0.50;0.50;;;13.10;46.10;;;;;;4928972;28;46623;-57
2023/03/09 08:00:27;;;;;;;0.63;0.30;;;13.10;46.10;;;;;;4926660;28;45490;-61
2023/03/09 08:02:53;;;;;;;0.50;0.40;;;13.10;46.10;;;;;;4926127;28;45304;-58
2023/03/09 08:05:19;;;;;;;0.55;0.40;;;13.10;46.10;;;;;;4911484;28;45625;-56
2023/03/09 08:07:46;;;;;;;0.30;0.30;;;13.10;46.10;;;;;;4927673;28;46436;-58
2023/03/09 08:10:13;;;;;;;0.30;0.30;;;13.10;46.10;;;;;;4909731;28;45375;-57
2023/03/09 08:12:39;;;;;;;0.35;0.32;;;13.10;46.10;;;;;;4926266;28;45628;-58
2023/03/09 08:15:05;;;;;;;0.30;0.30;;;13.10;46.10;;;;;;4929255;28;45285;-60
2023/03/09 08:17:31;;;;;;;0.50;0.50;;;13.10;46.10;;;;;;4927792;28;45459;-59
2023/03/09 08:19:57;;;;;;;0.30;0.30;;;13.20;46.10;;;;;;4929768;28;45656;-58
2023/03/09 08:22:22;;;;;;;0.43;0.43;;;13.10;46.10;;;;;;4928709;28;45368;-60
2023/03/09 08:24:48;;;;;;;0.53;0.43;;;13.10;46.00;;;;;;4926476;28;44990;-58
2023/03/09 08:27:13;;;;;;;0.50;0.50;;;13.20;46.10;;;;;;4924586;28;45643;-61
2023/03/09 08:29:39;;;;;;;0.30;0.30;;;13.20;46.10;;;;;;4897800;28;45238;-58
2023/03/09 08:32:09;;;;;;;0.47;0.40;;;13.10;46.20;;;;;;4927733;28;45072;-57
2023/03/09 08:34:34;;;;;;;0.40;0.40;;;13.20;46.20;;;;;;4910042;28;45083;-56
2023/03/09 08:37:00;;;;;;;0.45;0.45;;;13.20;46.10;;;;;;4926924;28;47138;-60
2023/03/09 08:39:25;;;;;;;0.70;0.40;;;13.20;46.10;;;;;;4924584;28;45322;-58
2023/03/09 08:41:51;;;;;;;0.37;0.37;;;13.20;46.20;;;;;;4926260;28;45235;-58
2023/03/09 08:44:16;;;;;;;0.50;0.40;;;13.20;46.20;;;;;;4925865;28;44788;-57
2023/03/09 08:46:42;;;;;;;0.50;0.50;;;13.20;46.20;;;;;;4925470;28;45440;-58
2023/03/09 08:49:08;;;;;;;0.47;0.47;;;13.20;46.10;;;;;;4929182;28;45458;-60
2023/03/09 08:51:34;;;;;;;0.40;0.40;;;13.20;46.20;;;;;;4926208;28;44966;-60
2023/03/09 08:54:00;;;;;;;0.35;0.35;;;13.20;46.10;;;;;;4926828;28;45194;-58
2023/03/09 08:56:26;;;;;;;0.50;0.47;;;13.20;46.10;;;;;;4925622;28;45208;-57
2023/03/09 08:58:51;;;;;;;0.40;0.40;;;13.20;46.10;;;;;;4929455;28;44935;-59
2023/03/09 09:01:17;;;;;;;0.40;0.40;;;13.20;46.10;;;;;;4925132;28;45614;-59
2023/03/09 09:03:43;;;;;;;0.40;0.40;;;13.20;46.10;;;;;;4926850;28;45677;-57
2023/03/09 09:06:13;;;;;;;0.40;0.40;;;13.20;46.10;;;;;;4926588;28;45172;-60
2023/03/09 09:08:39;;;;;;;0.30;0.30;;;13.20;46.10;;;;;;4924134;28;45479;-57
2023/03/09 09:11:12;;;;;;;0.30;0.30;;;13.20;46.10;;;;;;4911120;28;45605;-59
2023/03/09 09:13:37;;;;;;;0.70;0.40;;;13.20;46.10;;;;;;4926038;28;44865;-58
2023/03/09 09:16:05;;;;;;;0.50;0.40;;;13.20;46.70;;;;;;4926422;28;45440;-58
2023/03/09 09:18:32;;;;;;;0.55;0.40;;;13.20;46.10;;;;;;4924490;28;45150;-59
2023/03/09 09:20:58;;;;;;;0.45;0.40;;;13.20;46.10;;;;;;4927323;28;45717;-60
2023/03/09 09:23:23;;;;;;;0.50;0.40;;;13.30;46.20;;;;;;4928780;28;45103;-57
2023/03/09 09:25:55;;;;;;;0.40;0.40;;;13.20;46.20;;;;;;4925181;28;45633;-60
2023/03/09 09:28:22;;;;;;;0.47;0.40;;;13.20;46.20;;;;;;4925859;28;45653;-59
2023/03/09 09:30:58;;;;;;;0.30;0.25;;;13.20;46.20;;;;;;4923735;28;44875;-58
2023/03/09 09:33:24;;;;;;;0.60;0.40;;;13.20;46.30;;;;;;4924387;28;45395;-58
2023/03/09 09:36:01;;;;;;;0.57;0.50;;;13.20;46.30;;;;;;4927193;28;45381;-58
2023/03/09 09:38:27;;;;;;;0.30;0.30;;;13.20;46.30;;;;;;4925542;28;45452;-57
2023/03/09 09:40:54;;;;;;;0.85;0.50;;;13.30;46.30;;;;;;4921570;28;46162;-59
2023/03/09 09:43:20;;;;;;;0.50;0.40;;;13.30;46.30;;;;;;4910554;28;45516;-58
2023/03/09 09:45:46;;;;;;;0.50;0.40;;;13.30;46.30;;;;;;4923303;28;45692;-60
2023/03/09 09:48:15;;;;;;;0.40;0.40;;;13.30;46.30;;;;;;4930406;28;45201;-58
2023/03/09 09:51:03;;;;;;;0.50;0.40;;;13.30;46.30;;;;;;4924419;28;45498;-59
2023/03/09 09:54:00;;;;;;;0.50;0.40;;;13.30;46.30;;;;;;4928463;28;45339;-56
2023/03/09 09:56:45;;;;;;;0.30;0.30;;;13.30;46.30;;;;;;4923588;28;45595;-57
2023/03/09 09:59:19;;;;;;;0.40;0.40;;;13.30;46.30;;;;;;4928509;28;45155;-58
2023/03/09 10:01:51;;;;;;;0.32;0.32;;;13.30;46.30;;;;;;4924200;28;45626;-58
2023/03/09 10:04:21;;;;;;;0.70;0.60;;;13.30;46.30;;;;;;4926071;28;45587;-58
2023/03/09 10:06:47;;;;;;;0.40;0.40;;;13.30;46.40;;;;;;4911055;28;46494;-58
2023/03/09 10:09:27;;;;;;;0.60;0.40;;;13.30;46.40;;;;;;4926383;28;44695;-58
2023/03/09 10:12:02;;;;;;;0.40;0.35;;;13.30;46.40;;;;;;4909707;28;45584;-56
2023/03/09 10:14:31;;;;;;;0.40;0.30;;;13.30;46.40;;;;;;4912108;28;45085;-60
2023/03/09 10:17:02;;;;;;;0.40;0.38;;;13.30;46.50;;;;;;4925770;28;45431;-58
2023/03/09 10:19:41;;;;;;;0.75;0.40;;;13.30;46.40;;;;;;4924539;28;45277;-59
2023/03/09 10:22:27;;;;;;;0.90;0.52;;;13.30;46.40;;;;;;4906181;28;45292;-59
2023/03/09 10:24:54;;;;;;;0.40;0.40;;;13.30;46.40;;;;;;4908826;28;45799;-59
2023/03/09 10:27:35;;;;;;;0.53;0.50;;;13.40;46.50;;;;;;4922357;28;46227;-58
2023/03/09 10:30:03;;;;;;;0.40;0.30;;;13.40;46.60;;;;;;4914552;28;45023;-59
2023/03/09 10:32:40;;;;;;;0.80;0.47;;;13.40;46.50;;;;;;4924813;28;45754;-58
2023/03/09 10:35:18;;;;;;;0.40;0.40;;;13.40;46.50;;;;;;4918050;28;45202;-56
2023/03/09 10:37:44;;;;;;;0.90;0.40;;;13.40;46.50;;;;;;4911630;28;45466;-55
2023/03/09 10:40:19;;;;;;;0.70;0.40;;;13.40;46.50;;;;;;4898517;28;45306;-54
2023/03/09 10:42:44;;;;;;;0.80;0.50;;;13.40;46.60;;;;;;4929770;28;45108;-57
2023/03/09 10:45:19;;;;;;;0.60;0.40;;;13.40;46.50;;;;;;4932217;28;45390;-56
2023/03/09 10:47:47;;;;;;;0.65;0.43;;;13.40;46.50;;;;;;4932165;28;45151;-56
2023/03/09 10:50:14;;;;;;;1.27;0.40;;;13.40;46.50;;;;;;4933073;28;45418;-55
2023/03/09 10:52:39;;;;;;;0.30;0.30;;;13.40;46.50;;;;;;4931175;28;45253;-60
2023/03/09 10:55:29;;;;;;;0.60;0.50;;;13.40;46.50;;;;;;4913633;28;44739;-58
2023/03/09 10:57:59;;;;;;;0.80;0.40;;;13.40;46.60;;;;;;4931152;28;46327;-58
2023/03/09 11:00:25;;;;;;;0.80;0.50;;;13.40;46.50;;;;;;4929913;28;45370;-56
2023/03/09 11:02:56;;;;;;;0.60;0.40;;;13.40;46.60;;;;;;4913841;28;45578;-57
2023/03/09 11:05:23;;;;;;;0.33;0.30;;;13.40;46.60;;;;;;4934828;28;44720;-54
2023/03/09 11:07:53;;;;;;;0.33;0.33;;;13.40;46.50;;;;;;4932987;28;45739;-56
2023/03/09 11:10:28;;;;;;;0.80;0.40;;;13.40;46.60;;;;;;4927946;28;45505;-57
2023/03/09 11:12:54;;;;;;;0.50;0.40;;;13.40;46.60;;;;;;4932070;28;45444;-57
2023/03/09 11:15:23;;;;;;;0.40;0.40;;;13.40;46.60;;;;;;4932220;28;45130;-58
2023/03/09 11:17:49;;;;;;;0.40;0.40;;;13.40;46.60;;;;;;4928119;28;45563;-57
2023/03/09 11:20:24;;;;;;;0.50;0.45;;;13.40;46.60;;;;;;4929196;28;45301;-57
2023/03/09 11:23:14;;;;;;;1.00;0.45;;;13.40;46.60;;;;;;4932601;28;45027;-57
2023/03/09 11:26:31;;;;;;;0.70;0.40;;;13.40;46.60;;;;;;4932515;28;45335;-56
2023/03/09 11:28:58;;;;;;;0.57;0.40;;;13.40;46.60;;;;;;4910253;28;45249;-58
2023/03/09 11:31:25;;;;;;;0.90;0.50;;;13.40;46.50;;;;;;4929850;28;46834;-58
2023/03/09 11:33:54;;;;;;;0.57;0.40;;;13.50;46.60;;;;;;4930577;28;45267;-59
2023/03/09 11:36:23;;;;;;;0.57;0.40;;;13.50;46.50;;;;;;4928858;28;44674;-53
2023/03/09 11:38:48;;;;;;;0.43;0.43;;;13.50;46.50;;;;;;4928138;28;45452;-56
2023/03/09 11:41:33;;;;;;;0.90;0.47;;;13.50;46.50;;;;;;4913600;28;45179;-54
2023/03/09 11:44:09;;;;;;;0.70;0.47;;;13.50;46.40;;;;;;4916694;28;45336;-57
2023/03/09 11:46:35;;;;;;;0.65;0.40;;;13.50;46.40;;;;;;4932251;28;45695;-60
2023/03/09 11:49:10;;;;;;;0.67;0.40;;;13.60;46.50;;;;;;4930485;28;45824;-57
2023/03/09 11:51:38;;;;;;;0.40;0.40;;;13.50;46.40;;;;;;4927769;28;45339;-59
2023/03/09 11:54:24;;;;;;;0.32;0.30;;;13.50;46.50;;;;;;4931217;28;45258;-56
2023/03/09 11:56:50;;;;;;;0.95;0.50;;;13.60;46.50;;;;;;4930837;28;45414;-59
2023/03/09 11:59:29;;;;;;;0.70;0.40;;;13.60;46.60;;;;;;4927572;28;45343;-54
2023/03/09 12:02:13;;;;;;;0.50;0.30;;;13.60;46.60;;;;;;4928850;28;45432;-59
2023/03/09 12:04:39;;;;;;;0.65;0.40;;;13.60;46.60;;;;;;4929644;28;45417;-57
2023/03/09 12:07:32;;;;;;;0.60;0.50;;;13.60;46.60;;;;;;4927715;28;45427;-59
2023/03/09 12:10:04;;;;;;;0.50;0.38;;;13.60;46.60;;;;;;4927660;28;46767;-58
2023/03/09 12:12:55;;;;;;;0.40;0.38;;;13.60;46.60;;;;;;4928039;28;45845;-55
2023/03/09 12:15:31;;;;;;;0.47;0.37;;;13.60;46.60;;;;;;4931653;28;45737;-57
2023/03/09 12:17:58;;;;;;;0.43;0.40;;;13.60;46.60;;;;;;4929970;28;45337;-60
2023/03/09 12:20:35;;;;;;;0.80;0.40;;;13.60;46.60;;;;;;4930115;28;46525;-55
2023/03/09 12:23:01;;;;;;;0.93;0.50;;;13.60;46.60;;;;;;4932622;28;45332;-58
2023/03/09 12:25:27;;;;;;;0.77;0.50;;;13.60;46.70;;;;;;4934165;28;45224;-59
2023/03/09 12:27:53;;;;;;;0.30;0.30;;;13.60;46.60;;;;;;4931438;28;45502;-57
2023/03/09 12:30:28;;;;;;;0.60;0.50;;;13.60;47.20;;;;;;4929216;28;45422;-57
2023/03/09 12:32:56;;;;;;;0.80;0.50;;;13.70;46.60;;;;;;4922765;28;45743;-58
2023/03/09 12:35:22;;;;;;;0.95;0.40;;;13.60;46.60;;;;;;4927134;28;45445;-57
2023/03/09 12:37:55;;;;;;;0.50;0.30;;;13.70;46.60;;;;;;4925634;28;45017;-55
2023/03/09 12:40:27;;;;;;;0.43;0.43;;;13.70;46.60;;;;;;4924871;28;45673;-59
2023/03/09 12:42:57;;;;;;;0.38;0.30;;;13.70;46.70;;;;;;4926011;28;45519;-60
2023/03/09 12:45:32;;;;;;;0.70;0.50;;;13.70;46.70;;;;;;4933262;28;45165;-57
2023/03/09 12:48:07;;;;;;;0.60;0.35;;;13.70;46.60;;;;;;4930360;28;45664;-58
2023/03/09 12:50:42;;;;;;;1.00;0.43;;;13.70;46.60;;;;;;4928367;28;45675;-60
2023/03/09 12:53:10;;;;;;;0.30;0.30;;;13.70;46.60;;;;;;4925903;28;45022;-60
2023/03/09 12:55:36;;;;;;;0.30;0.30;;;13.70;46.60;;;;;;4929995;28;45200;-57
2023/03/09 12:58:22;;;;;;;0.50;0.40;;;13.70;46.70;;;;;;4929916;28;45161;-58
2023/03/09 13:01:27;;;;;;;0.30;0.30;;;13.70;46.70;;;;;;4928497;28;46075;-60
2023/03/09 13:04:08;;;;;;;0.80;0.50;;;13.70;46.70;;;;;;4925088;28;45250;-54
2023/03/09 13:06:41;;;;;;;0.75;0.40;;;13.70;46.70;;;;;;4911511;28;45283;-56
2023/03/09 13:09:13;;;;;;;0.60;0.30;;;13.70;46.70;;;;;;4924780;28;44698;-55
2023/03/09 13:11:42;;;;;;;0.38;0.32;;;13.80;46.80;;;;;;4925886;28;45267;-57
2023/03/09 13:14:15;;;;;;;0.35;0.35;;;13.80;46.70;;;;;;4925549;28;45902;-59
2023/03/09 13:16:44;;;;;;;0.50;0.40;;;13.80;46.80;;;;;;4928627;28;45160;-58
2023/03/09 13:21:42;;;;;;;0.45;0.38;;;13.80;46.80;;;;;;4926597;28;46251;-57
2023/03/09 13:24:40;;;;;;;0.40;0.40;;;13.70;46.70;;;;;;4931193;28;45174;-57
2023/03/09 13:27:23;;;;;;;0.55;0.40;;;13.70;46.80;;;;;;4916198;28;45153;-56
2023/03/09 13:29:52;;;;;;;1.08;0.40;;;13.80;46.80;;;;;;4925230;28;45555;-58
2023/03/09 13:32:34;;;;;;;0.70;0.50;;;13.80;46.80;;;;;;4925564;28;45175;-57
2023/03/09 13:35:02;;;;;;;0.52;0.30;;;13.80;46.80;;;;;;4929004;28;46616;-58
2023/03/09 13:37:33;;;;;;;0.43;0.32;;;13.80;46.80;;;;;;4929839;28;45312;-58
2023/03/09 13:40:03;;;;;;;0.33;0.30;;;13.80;46.80;;;;;;4923918;28;45275;-57
2023/03/09 13:42:33;;;;;;;0.50;0.40;;;13.80;46.70;;;;;;4928372;28;45469;-59
2023/03/09 13:44:58;;;;;;;0.45;0.38;;;13.80;46.80;;;;;;4894725;28;45743;-58
2023/03/09 13:47:26;;;;;;;0.30;0.30;;;13.90;46.80;;;;;;4930413;28;45445;-59
2023/03/09 13:49:52;;;;;;;0.37;0.30;;;13.90;46.80;;;;;;4923189;28;44982;-56
2023/03/09 13:52:19;;;;;;;0.80;0.40;;;13.80;46.70;;;;;;4927584;28;45500;-58
2023/03/09 13:54:55;;;;;;;0.70;0.40;;;13.90;46.80;;;;;;4929492;28;45187;-59
2023/03/09 13:57:39;;;;;;;0.30;0.30;;;13.90;46.80;;;;;;4927985;28;45320;-57
2023/03/09 14:00:18;;;;;;;0.30;0.30;;;13.90;46.80;;;;;;4938032;28;45559;-61
2023/03/09 14:02:43;;;;;;;0.30;0.30;;;13.90;46.80;;;;;;4928554;28;45287;-58
2023/03/09 14:05:15;;;;;;;0.52;0.40;;;13.90;46.80;;;;;;4929251;28;45211;-58
2023/03/09 14:07:54;;;;;;;0.40;0.40;;;13.90;46.80;;;;;;4928999;28;45537;-58
2023/03/09 14:10:31;;;;;;;0.50;0.32;;;13.90;46.80;;;;;;4911970;28;45272;-58
2023/03/09 14:13:02;;;;;;;0.35;0.35;;;13.90;46.80;;;;;;4930446;28;47230;-59
2023/03/09 14:15:28;;;;;;;0.43;0.30;;;13.90;46.80;;;;;;4916762;28;45172;-59
2023/03/09 14:17:54;;;;;;;0.50;0.40;;;13.90;46.80;;;;;;4930569;28;45412;-57
2023/03/09 14:20:21;;;;;;;0.52;0.40;;;13.90;46.90;;;;;;4930734;28;44725;-58
2023/03/09 14:22:46;;;;;;;0.30;0.22;;;13.90;46.90;;;;;;4931537;28;46322;-58
2023/03/09 14:25:24;;;;;;;0.50;0.40;;;13.90;46.90;;;;;;4930723;28;44828;-57
2023/03/09 14:27:53;;;;;;;0.43;0.43;;;13.90;47.00;;;;;;4930396;28;45405;-58
2023/03/09 14:30:40;;;;;;;0.40;0.40;;;13.90;46.90;;;;;;4912478;28;45246;-57
2023/03/09 14:33:28;;;;;;;0.50;0.40;;;13.90;46.80;;;;;;4930112;28;44984;-58
2023/03/09 14:36:16;;;;;;;0.80;0.50;;;13.90;46.90;;;;;;4930806;28;44954;-59
2023/03/09 14:38:58;;;;;;;0.80;0.32;;;13.90;46.90;;;;;;4926756;28;44748;-59
2023/03/09 14:41:28;;;;;;;0.88;0.50;;;13.90;46.90;;;;;;4930720;28;45416;-57
2023/03/09 14:43:54;;;;;;;0.30;0.30;;;13.90;46.90;;;;;;4927712;28;45555;-58
2023/03/09 14:46:21;;;;;;;0.43;0.40;;;13.90;46.90;;;;;;4930506;28;45587;-53
2023/03/09 14:48:54;;;;;;;0.40;0.30;;;13.90;46.90;;;;;;4908699;28;45089;-59
2023/03/09 14:51:34;;;;;;;0.35;0.30;;;13.90;46.90;;;;;;4925181;28;45294;-58
2023/03/09 14:54:06;;;;;;;0.40;0.38;;;13.90;46.90;;;;;;4931397;28;46164;-58
2023/03/09 14:56:31;;;;;;;0.50;0.40;;;13.90;46.90;;;;;;4930164;28;44768;-58
2023/03/09 14:59:01;;;;;;;0.60;0.40;;;13.90;46.90;;;;;;4932065;28;45793;-58
2023/03/09 15:01:28;;;;;;;0.60;0.45;;;13.90;47.50;;;;;;4927357;28;44897;-58
2023/03/09 15:03:53;;;;;;;0.50;0.30;;;13.90;46.90;;;;;;4931069;28;45382;-54
2023/03/09 15:06:19;;;;;;;0.80;0.40;;;13.90;46.90;;;;;;4931331;28;45468;-57
2023/03/09 15:08:44;;;;;;;0.43;0.30;;;14.00;47.00;;;;;;4929122;28;45428;-59
2023/03/09 15:11:10;;;;;;;0.30;0.30;;;13.90;46.90;;;;;;4930344;28;44710;-57
2023/03/09 15:13:35;;;;;;;0.40;0.30;;;14.00;47.00;;;;;;4926636;28;45453;-58
2023/03/09 15:16:02;;;;;;;0.30;0.30;;;14.00;47.00;;;;;;4931794;28;45197;-57
2023/03/09 15:18:27;;;;;;;0.40;0.38;;;14.00;47.00;;;;;;4931666;28;45138;-58
2023/03/09 15:20:53;;;;;;;0.40;0.30;;;14.00;47.00;;;;;;4913409;28;45205;-57
2023/03/09 15:23:18;;;;;;;0.37;0.30;;;14.00;47.00;;;;;;4931860;28;45753;-60
2023/03/09 15:25:44;;;;;;;0.65;0.40;;;14.00;47.00;;;;;;4928253;28;45184;-57
2023/03/09 15:28:10;;;;;;;0.77;0.40;;;14.00;47.00;;;;;;4930484;28;44719;-57
2023/03/09 15:30:36;;;;;;;0.40;0.30;;;14.00;46.90;;;;;;4928947;28;45377;-63
2023/03/09 15:33:02;;;;;;;0.30;0.30;;;14.00;47.00;;;;;;4911206;28;47100;-59
2023/03/09 15:35:27;;;;;;;0.40;0.33;;;14.00;47.00;;;;;;4923901;28;44743;-58
2023/03/09 15:37:53;;;;;;;0.50;0.40;;;14.00;46.90;;;;;;4925089;28;45626;-57
2023/03/09 15:40:18;;;;;;;0.43;0.30;;;14.00;46.90;;;;;;4929985;28;44965;-58
2023/03/09 15:42:44;;;;;;;0.97;0.30;;;14.00;47.00;;;;;;4928314;28;46348;-58
2023/03/09 15:45:12;;;;;;;0.60;0.40;;;14.00;46.90;;;;;;4928704;28;44766;-57
2023/03/09 15:47:37;;;;;;;0.70;0.40;;;14.00;46.90;;;;;;4931342;28;44956;-59
2023/03/09 15:50:04;;;;;;;0.50;0.20;;;14.00;46.90;;;;;;4928538;28;45203;-60
2023/03/09 15:52:30;;;;;;;0.70;0.30;;;14.00;46.90;;;;;;4929111;28;45584;-58
2023/03/09 15:54:55;;;;;;;0.38;0.30;;;14.00;46.90;;;;;;4930219;28;45321;-58
2023/03/09 15:57:21;;;;;;;0.30;0.30;;;14.00;46.90;;;;;;4928309;28;45661;-57
2023/03/09 15:59:46;;;;;;;0.50;0.33;;;14.00;46.90;;;;;;4932022;28;45199;-57
2023/03/09 16:02:12;;;;;;;0.30;0.30;;;14.00;46.90;;;;;;4929998;28;45592;-58
2023/03/09 16:04:37;;;;;;;0.28;0.28;;;14.00;46.90;;;;;;4915246;28;45310;-59
2023/03/09 16:07:03;;;;;;;0.50;0.40;;;14.00;46.80;;;;;;4926420;28;45435;-59
2023/03/09 16:09:28;;;;;;;0.30;0.30;;;14.00;46.90;;;;;;4931736;28;45554;-59
2023/03/09 16:11:54;;;;;;;0.30;0.30;;;14.00;46.90;;;;;;4930134;28;45280;-55
2023/03/09 16:14:20;;;;;;;0.68;0.47;;;14.10;47.00;;;;;;4931998;28;45535;-57
2023/03/09 16:16:45;;;;;;;0.30;0.30;;;14.00;46.90;;;;;;4929636;28;45190;-60
2023/03/09 16:19:11;;;;;;;0.60;0.40;;;14.10;47.00;;;;;;4927785;28;45381;-59
2023/03/09 16:21:36;;;;;;;0.60;0.40;;;14.00;46.90;;;;;;4929408;28;45638;-57
2023/03/09 16:24:02;;;;;;;0.40;0.30;;;14.00;47.00;;;;;;4931148;28;45197;-57
2023/03/09 16:26:27;;;;;;;0.40;0.30;;;14.00;46.90;;;;;;4931544;28;44722;-57
2023/03/09 16:28:54;;;;;;;0.47;0.30;;;14.00;46.90;;;;;;4928260;28;45871;-60
2023/03/09 16:31:21;;;;;;;0.47;0.38;;;14.00;47.00;;;;;;4928659;28;45455;-57
2023/03/09 16:33:47;;;;;;;0.38;0.38;;;14.00;47.00;;;;;;4932199;28;44941;-61
2023/03/09 16:36:13;;;;;;;0.67;0.40;;;14.00;47.00;;;;;;4928462;28;44851;-58
2023/03/09 16:38:39;;;;;;;0.60;0.40;;;14.00;47.00;;;;;;4926594;28;44757;-59
2023/03/09 16:41:09;;;;;;;0.35;0.32;;;14.10;47.00;;;;;;4927489;28;47440;-60
2023/03/09 16:43:34;;;;;;;0.73;0.30;;;14.10;47.00;;;;;;4927282;28;45505;-58
2023/03/09 16:46:00;;;;;;;0.55;0.40;;;14.10;47.00;;;;;;4931989;28;45286;-54
2023/03/09 16:48:26;;;;;;;0.50;0.50;;;14.10;47.00;;;;;;4929551;28;45312;-60
2023/03/09 16:50:55;;;;;;;0.60;0.30;;;14.10;47.10;;;;;;4926713;28;45561;-58
2023/03/09 16:53:21;;;;;;;0.40;0.30;;;14.10;47.10;;;;;;4924009;28;44674;-59
2023/03/09 16:55:55;;;;;;;0.53;0.33;;;14.10;47.20;;;;;;4927884;28;44826;-61
2023/03/09 16:58:20;;;;;;;0.20;0.20;;;14.10;47.10;;;;;;4930176;28;45145;-58
2023/03/09 17:00:46;;;;;;;0.50;0.40;;;14.10;47.10;;;;;;4926545;28;45655;-62